createdAt,value
2018-11-12T00:01:24.074Z,10.07
2018-11-12T00:03:52.410Z,10.20
2018-11-12T00:06:20.643Z,11.33
2018-11-12T00:08:48.848Z,10.43
2018-11-12T00:11:17.063Z,10.70
2018-11-12T00:13:45.445Z,10.13
2018-11-12T00:16:13.612Z,10.33
2018-11-12T00:18:41.825Z,10.80
2018-11-12T00:21:10.019Z,10.30
2018-11-12T00:23:38.236Z,10.63
2018-11-12T00:26:06.718Z,10.57
2018-11-12T00:28:35.067Z,10.53
2018-11-12T00:31:03.370Z,11.47
2018-11-12T00:33:31.573Z,10.47
2018-11-12T00:35:59.729Z,10.40
2018-11-12T00:38:27.966Z,10.30
2018-11-12T00:40:56.222Z,10.50
2018-11-12T00:43:24.456Z,10.90
2018-11-12T00:45:52.585Z,10.10
2018-11-12T00:48:20.775Z,10.67
2018-11-12T00:50:48.957Z,10.87
2018-11-12T00:53:17.242Z,11.60
2018-11-12T00:55:45.430Z,11.20
2018-11-12T00:58:14.842Z,11.50
2018-11-12T01:00:43.800Z,10.10
2018-11-12T01:03:11.995Z,11.23
2018-11-12T01:05:40.324Z,10.97
2018-11-12T01:08:08.589Z,11.00
2018-11-12T01:10:36.726Z,10.77
2018-11-12T01:13:04.972Z,11.43
2018-11-12T01:15:33.280Z,11.27
2018-11-12T01:18:01.470Z,11.87
2018-11-12T01:20:29.663Z,11.97
2018-11-12T01:22:57.825Z,12.33
2018-11-12T01:25:25.964Z,12.10
2018-11-12T01:27:54.268Z,13.03
2018-11-12T01:30:22.434Z,12.97
2018-11-12T01:32:50.694Z,12.83
2018-11-12T01:35:18.868Z,12.87
2018-11-12T01:37:47.035Z,13.17
2018-11-12T01:40:15.713Z,12.13
2018-11-12T01:42:44.196Z,13.00
2018-11-12T01:45:14.016Z,12.63
2018-11-12T01:47:42.828Z,12.50
2018-11-12T01:50:11.993Z,12.53
2018-11-12T01:52:40.367Z,12.40
2018-11-12T01:55:09.511Z,12.50
2018-11-12T01:57:37.800Z,12.83
2018-11-12T02:00:07.319Z,12.73
2018-11-12T02:02:35.525Z,12.53
2018-11-12T02:05:03.829Z,12.57
2018-11-12T02:07:31.794Z,12.93
2018-11-12T02:09:59.968Z,13.40
2018-11-12T02:12:28.294Z,13.07
2018-11-12T02:14:56.542Z,12.83
2018-11-12T02:17:24.774Z,13.67
2018-11-12T02:19:53.093Z,14.90
2018-11-12T02:22:21.874Z,14.47
2018-11-12T02:24:50.146Z,15.07
2018-11-12T02:27:18.391Z,15.10
2018-11-12T02:29:46.577Z,13.90
2018-11-12T02:32:14.877Z,14.33
2018-11-12T02:34:43.051Z,15.90
2018-11-12T02:37:11.198Z,15.87
2018-11-12T02:39:39.459Z,15.50
2018-11-12T02:42:07.628Z,15.80
2018-11-12T02:44:35.871Z,15.93
2018-11-12T02:47:04.109Z,16.07
2018-11-12T02:49:32.261Z,15.80
2018-11-12T02:52:00.515Z,16.13
2018-11-12T02:54:28.692Z,16.60
2018-11-12T02:56:56.902Z,17.47
2018-11-12T02:59:25.092Z,16.87
2018-11-12T03:01:53.405Z,18.10
2018-11-12T03:04:21.543Z,17.43
2018-11-12T03:06:49.679Z,17.67
2018-11-12T03:09:17.814Z,17.97
2018-11-12T03:11:46.050Z,18.23
2018-11-12T03:14:14.337Z,18.80
2018-11-12T03:16:42.495Z,19.13
2018-11-12T03:19:10.647Z,19.27
2018-11-12T03:21:38.788Z,18.87
2018-11-12T03:24:07.740Z,20.57
2018-11-12T03:26:35.896Z,18.80
2018-11-12T03:29:04.158Z,19.73
2018-11-12T03:31:32.347Z,19.60
2018-11-12T03:34:00.589Z,19.63
2018-11-12T03:36:28.734Z,20.83
2018-11-12T03:38:57.396Z,20.33
2018-11-12T03:41:25.644Z,20.80
2018-11-12T03:43:54.843Z,21.57
2018-11-12T03:46:23.138Z,21.50
2018-11-12T03:48:51.702Z,21.77
2018-11-12T03:51:19.951Z,23.07
2018-11-12T03:53:48.253Z,21.33
2018-11-12T03:56:16.421Z,22.30
2018-11-12T03:58:44.627Z,22.70
2018-11-12T04:01:12.837Z,22.57
2018-11-12T04:03:41.059Z,21.27
2018-11-12T04:06:09.327Z,22.07
2018-11-12T04:08:37.520Z,21.70
2018-11-12T04:11:06.009Z,22.33
2018-11-12T04:13:34.269Z,21.50
2018-11-12T04:16:02.571Z,21.37
2018-11-12T04:18:30.931Z,21.07
2018-11-12T04:20:59.157Z,21.90
2018-11-12T04:23:27.426Z,20.90
2018-11-12T04:25:55.734Z,21.07
2018-11-12T04:28:23.884Z,21.27
2018-11-12T04:30:52.947Z,21.43
2018-11-12T04:33:21.134Z,21.30
2018-11-12T04:35:49.317Z,21.23
2018-11-12T04:38:17.448Z,22.33
2018-11-12T04:40:46.205Z,21.17
2018-11-12T04:43:14.460Z,21.80
2018-11-12T04:45:42.855Z,21.53
2018-11-12T04:48:11.082Z,21.07
2018-11-12T04:50:39.231Z,21.80
2018-11-12T04:53:07.407Z,21.33
2018-11-12T04:55:35.590Z,22.17
2018-11-12T04:58:03.936Z,21.93
2018-11-12T05:00:32.093Z,21.80
2018-11-12T05:03:00.537Z,21.97
2018-11-12T05:05:29.193Z,22.07
2018-11-12T05:07:57.424Z,21.93
2018-11-12T05:10:26.548Z,21.60
2018-11-12T05:12:55.895Z,22.40
2018-11-12T05:15:24.806Z,22.97
2018-11-12T05:17:53.135Z,22.73
2018-11-12T05:20:22.896Z,22.90
2018-11-12T05:22:52.099Z,22.83
2018-11-12T05:25:20.573Z,24.43
2018-11-12T05:27:49.077Z,24.27
2018-11-12T05:30:19.062Z,22.43
2018-11-12T05:32:47.406Z,22.73
2018-11-12T05:35:17.120Z,23.27
2018-11-12T05:37:45.891Z,24.53
2018-11-12T05:40:21.343Z,23.63
2018-11-12T05:42:50.043Z,23.27
2018-11-12T05:45:19.545Z,24.70
2018-11-12T05:47:48.052Z,24.17
2018-11-12T05:50:23.111Z,24.00
2018-11-12T05:52:53.203Z,21.77
2018-11-12T05:55:22.758Z,23.20
2018-11-12T05:57:51.212Z,23.03
2018-11-12T06:00:21.486Z,21.97
2018-11-12T06:02:49.777Z,23.50
2018-11-12T06:05:18.256Z,21.93
2018-11-12T06:07:46.368Z,22.47
2018-11-12T06:10:22.503Z,22.47
2018-11-12T06:12:51.253Z,22.00
2018-11-12T06:15:19.556Z,23.10
2018-11-12T06:17:48.505Z,22.77
2018-11-12T06:20:19.286Z,23.47
2018-11-12T06:22:47.604Z,24.03
2018-11-12T06:25:18.177Z,24.03
2018-11-12T06:27:47.810Z,23.17
2018-11-12T06:30:48.308Z,22.40
2018-11-12T06:33:16.794Z,23.30
2018-11-12T06:35:45.462Z,23.77
2018-11-12T06:38:15.791Z,23.30
2018-11-12T06:40:45.045Z,24.20
2018-11-12T06:43:14.202Z,23.90
2018-11-12T06:45:43.768Z,23.13
2018-11-12T06:48:12.652Z,24.17
2018-11-12T06:50:42.883Z,24.83
2018-11-12T06:53:13.776Z,24.77
2018-11-12T06:58:56.289Z,25.13
2018-11-12T07:01:24.887Z,24.43
2018-11-12T07:03:53.357Z,26.10
2018-11-12T07:06:21.676Z,25.93
2018-11-12T07:08:49.986Z,24.07
2018-11-12T07:11:20.956Z,25.27
2018-11-12T07:13:51.051Z,24.40
2018-11-12T07:16:20.275Z,23.80
2018-11-12T07:18:48.753Z,24.63
2018-11-12T07:21:17.509Z,25.80
2018-11-12T07:23:45.746Z,25.17
2018-11-12T07:26:14.060Z,25.73
2018-11-12T07:28:42.305Z,25.60
2018-11-12T07:31:10.558Z,25.60
2018-11-12T07:33:38.666Z,24.43
2018-11-12T07:36:06.835Z,23.70
2018-11-12T07:38:35.061Z,24.43
2018-11-12T07:41:03.449Z,26.17
2018-11-12T07:43:31.898Z,25.93
2018-11-12T07:46:00.406Z,25.47
2018-11-12T07:48:28.829Z,24.53
2018-11-12T07:50:58.071Z,24.90
2018-11-12T07:53:26.546Z,24.90
2018-11-12T07:55:55.265Z,25.33
2018-11-12T07:58:23.946Z,23.70
2018-11-12T08:00:53.052Z,23.90
2018-11-12T08:03:22.004Z,23.70
2018-11-12T08:05:50.221Z,23.57
2018-11-12T08:08:18.341Z,23.13
2018-11-12T08:10:46.650Z,23.30
2018-11-12T08:13:14.851Z,23.00
2018-11-12T08:15:43.152Z,22.80
2018-11-12T08:18:11.376Z,23.47
2018-11-12T08:20:43.068Z,22.13
2018-11-12T08:23:11.715Z,22.13
2018-11-12T08:25:39.997Z,21.47
2018-11-12T08:28:08.254Z,22.30
2018-11-12T08:30:36.777Z,21.90
2018-11-12T08:33:05.460Z,21.97
2018-11-12T08:35:33.809Z,21.57
2018-11-12T08:38:03.152Z,21.30
2018-11-12T08:40:31.820Z,21.37
2018-11-12T08:43:00.249Z,20.37
2018-11-12T08:45:34.079Z,20.50
2018-11-12T08:48:02.667Z,20.43
2018-11-12T08:50:36.000Z,19.30
2018-11-12T08:53:04.595Z,19.63
2018-11-12T08:55:36.226Z,19.83
2018-11-12T08:58:04.884Z,19.53
2018-11-12T09:00:46.689Z,19.27
2018-11-12T09:04:06.056Z,19.53
2018-11-12T09:16:36.009Z,15.43
2018-11-12T09:19:04.653Z,14.33
2018-11-12T09:21:32.932Z,13.83
2018-11-12T09:24:01.689Z,13.33
2018-11-12T09:26:29.877Z,13.03
2018-11-12T09:28:58.109Z,12.60
2018-11-12T09:31:27.102Z,12.23
2018-11-12T09:38:50.922Z,11.37
2018-11-12T09:41:19.051Z,11.20
2018-11-12T09:43:47.301Z,10.90
2018-11-12T09:46:15.419Z,10.70
2018-11-12T09:48:43.801Z,9.67
2018-11-12T09:51:12.091Z,9.53
2018-11-12T09:53:40.424Z,10.57
2018-11-12T09:56:08.555Z,9.77
2018-11-12T09:58:36.838Z,9.93
2018-11-12T10:01:05.339Z,8.63
2018-11-12T10:03:34.742Z,8.07
2018-11-12T10:06:02.800Z,7.83
2018-11-12T10:08:33.192Z,6.97
2018-11-12T10:11:02.756Z,6.87
2018-11-12T10:13:30.964Z,5.37
2018-11-12T10:15:59.994Z,6.70
2018-11-12T10:18:25.843Z,5.37
2018-11-12T10:20:54.316Z,6.33
2018-11-12T10:23:22.749Z,5.57
2018-11-12T10:25:51.050Z,6.00
2018-11-12T10:28:20.601Z,5.70
2018-11-12T10:30:48.763Z,5.57
2018-11-12T10:33:18.408Z,6.47
2018-11-12T10:35:47.689Z,7.17
2018-11-12T10:38:16.767Z,7.37
2018-11-12T10:40:45.803Z,7.23
2018-11-12T10:43:13.939Z,7.40
2018-11-12T10:45:42.081Z,8.00
2018-11-12T10:48:10.283Z,7.40
2018-11-12T10:50:38.386Z,7.27
2018-11-12T10:53:09.478Z,6.77
2018-11-12T10:55:37.719Z,6.03
2018-11-12T10:58:05.765Z,6.47
2018-11-12T11:00:39.575Z,5.50
2018-11-12T11:03:13.695Z,5.67
2018-11-12T11:05:42.996Z,5.30
2018-11-12T11:08:11.222Z,5.83
2018-11-12T11:10:39.401Z,5.53
2018-11-12T11:13:07.859Z,5.70
2018-11-12T11:15:36.503Z,5.63
2018-11-12T11:18:04.743Z,6.17
2018-11-12T11:20:32.843Z,6.20
2018-11-12T11:23:01.181Z,6.50
2018-11-12T11:25:29.483Z,6.40
2018-11-12T11:27:57.613Z,6.73
2018-11-12T11:30:26.018Z,7.43
2018-11-12T11:32:54.219Z,6.90
2018-11-12T11:35:23.928Z,7.33
2018-11-12T11:37:52.071Z,7.30
2018-11-12T11:40:22.718Z,8.07
2018-11-12T11:42:50.804Z,7.83
2018-11-12T11:45:21.280Z,7.33
2018-11-12T11:47:50.239Z,7.73
2018-11-12T11:50:20.653Z,8.27
2018-11-12T11:52:49.342Z,8.47
2018-11-12T11:55:18.877Z,8.50
2018-11-12T11:57:47.434Z,7.60
2018-11-12T12:00:18.271Z,8.20
2018-11-12T12:02:47.534Z,8.83
2018-11-12T12:05:16.567Z,8.13
2018-11-12T12:07:44.897Z,7.67
2018-11-12T12:10:13.835Z,7.83
2018-11-12T12:12:42.564Z,8.13
2018-11-12T12:15:12.200Z,7.90
2018-11-12T12:17:40.572Z,7.40
2018-11-12T12:20:10.092Z,7.00
2018-11-12T12:22:38.272Z,7.23
2018-11-12T12:25:07.090Z,7.10
2018-11-12T12:27:35.223Z,7.20
2018-11-12T12:30:03.530Z,6.77
2018-11-12T12:32:31.813Z,6.93
2018-11-12T12:35:00.154Z,5.40
2018-11-12T12:37:28.388Z,5.10
2018-11-12T12:39:56.568Z,5.33
2018-11-12T12:42:25.023Z,6.07
2018-11-12T12:45:03.250Z,5.53
2018-11-12T12:47:45.064Z,5.43
2018-11-12T12:50:14.446Z,5.40
2018-11-12T12:52:42.674Z,5.97
2018-11-12T12:55:12.229Z,5.40
2018-11-12T12:57:40.973Z,5.83
2018-11-12T13:00:09.919Z,6.10
2018-11-12T13:02:38.679Z,6.10
2018-11-12T13:05:06.912Z,6.37
2018-11-12T13:07:35.117Z,6.17
2018-11-12T13:10:03.361Z,5.07
2018-11-12T13:12:31.561Z,5.00
2018-11-12T13:14:59.907Z,4.43
2018-11-12T13:17:27.919Z,4.57
2018-11-12T13:19:57.104Z,4.30
2018-11-12T13:22:26.499Z,3.73
2018-11-12T13:24:54.761Z,4.10
2018-11-12T13:27:22.933Z,4.33
2018-11-12T13:29:51.082Z,4.77
2018-11-12T13:32:19.203Z,4.33
2018-11-12T13:34:47.311Z,4.20
2018-11-12T13:37:15.393Z,5.23
2018-11-12T13:39:43.632Z,4.80
2018-11-12T13:42:11.698Z,3.77
2018-11-12T13:44:39.881Z,4.13
2018-11-12T13:47:08.045Z,4.07
2018-11-12T13:49:36.164Z,4.20
2018-11-12T13:52:04.500Z,3.97
2018-11-12T13:54:32.619Z,3.57
2018-11-12T13:57:00.806Z,3.87
2018-11-12T13:59:28.936Z,3.83
2018-11-12T14:01:57.162Z,3.80
2018-11-12T14:04:25.263Z,4.00
2018-11-12T14:06:53.579Z,4.30
2018-11-12T14:09:21.770Z,4.13
2018-11-12T14:11:53.949Z,4.53
2018-11-12T14:14:23.097Z,4.27
2018-11-12T14:16:51.237Z,5.03
2018-11-12T14:19:19.450Z,5.03
2018-11-12T14:21:47.626Z,4.83
2018-11-12T14:24:15.788Z,5.13
2018-11-12T14:26:47.037Z,4.93
2018-11-12T14:29:20.688Z,5.53
2018-11-12T14:31:51.157Z,5.40
2018-11-12T14:34:21.403Z,5.30
2018-11-12T14:36:51.219Z,5.73
2018-11-12T14:39:24.722Z,5.83
2018-11-12T14:41:55.500Z,5.87
2018-11-12T14:44:25.912Z,6.90
2018-11-12T14:46:56.259Z,6.03
2018-11-12T14:49:26.448Z,6.77
2018-11-12T14:51:59.457Z,6.80
2018-11-12T14:54:28.912Z,6.83
2018-11-12T14:56:59.828Z,7.00
2018-11-12T14:59:28.317Z,7.73
2018-11-12T15:01:57.100Z,6.90
2018-11-12T15:04:25.554Z,6.93
2018-11-12T15:06:54.209Z,7.23
2018-11-12T15:09:28.151Z,7.30
2018-11-12T15:11:57.679Z,7.63
2018-11-12T15:14:26.897Z,8.13
2018-11-12T15:20:30.364Z,8.40
2018-11-12T15:23:01.376Z,8.50
2018-11-12T15:25:40.392Z,8.83
2018-11-12T15:28:19.025Z,8.87
2018-11-12T15:43:32.295Z,10.20
2018-11-12T15:46:02.378Z,10.83
2018-11-12T15:51:19.552Z,10.87
2018-11-12T15:53:50.084Z,10.90
2018-11-12T15:56:19.882Z,10.83
2018-11-12T15:58:50.676Z,10.10
2018-11-12T16:01:22.741Z,9.27
2018-11-12T16:04:12.236Z,9.27
2018-11-12T16:41:44.465Z,10.13
2018-11-12T16:44:23.185Z,10.40
2018-11-12T16:47:06.430Z,11.73
2018-11-12T16:49:37.824Z,11.57
2018-11-12T16:54:45.159Z,12.80
2018-11-12T16:57:17.543Z,11.00
2018-11-12T16:59:47.615Z,12.00
2018-11-12T17:02:18.711Z,11.27
2018-11-12T17:04:48.670Z,12.27
2018-11-12T17:07:24.777Z,11.90
2018-11-12T17:10:01.244Z,13.07
2018-11-12T17:12:34.044Z,12.37
2018-11-12T17:15:03.149Z,12.57
2018-11-12T17:17:35.967Z,12.23
2018-11-12T17:20:07.282Z,12.60
2018-11-12T17:22:37.587Z,13.03
2018-11-12T17:25:10.887Z,12.87
2018-11-12T17:27:41.514Z,13.63
2018-11-12T17:30:10.877Z,13.37
2018-11-12T17:32:39.512Z,13.03
2018-11-12T17:35:08.826Z,13.03
2018-11-12T17:37:37.281Z,13.07
2018-11-12T17:40:08.684Z,11.93
2018-11-12T17:42:37.125Z,12.50
2018-11-12T17:45:07.584Z,11.90
2018-11-12T17:47:36.614Z,12.43
2018-11-12T17:50:06.477Z,12.40
2018-11-12T17:52:36.808Z,11.83
2018-11-12T17:58:03.597Z,11.70
2018-11-12T18:00:38.589Z,12.87
2018-11-12T18:09:02.942Z,15.23
2018-11-12T18:11:31.661Z,14.43
2018-11-12T18:14:00.340Z,14.53
2018-11-12T18:16:28.463Z,15.90
2018-11-12T18:18:57.048Z,15.13
2018-11-12T18:21:25.325Z,14.23
2018-11-12T18:23:53.665Z,15.10
2018-11-12T18:26:21.763Z,14.30
2018-11-12T18:28:50.071Z,14.17
2018-11-12T18:31:18.714Z,14.13
2018-11-12T18:33:46.835Z,14.23
2018-11-12T18:36:15.409Z,13.90
2018-11-12T18:38:43.600Z,13.57
2018-11-12T18:41:11.901Z,14.07
2018-11-12T18:43:40.622Z,14.17
2018-11-12T18:46:08.838Z,13.27
2018-11-12T18:48:37.027Z,13.83
2018-11-12T18:51:09.307Z,14.53
2018-11-12T18:53:37.853Z,13.97
2018-11-12T18:56:06.109Z,13.80
2018-11-12T18:58:34.264Z,14.37
2018-11-12T19:01:02.726Z,14.77
2018-11-12T19:03:30.938Z,13.90
2018-11-12T19:05:59.749Z,14.17
2018-11-12T19:08:27.924Z,14.50
2018-11-12T19:10:56.827Z,14.33
2018-11-12T19:13:24.924Z,13.53
2018-11-12T19:15:53.097Z,13.23
2018-11-12T19:18:21.421Z,13.07
2018-11-12T19:20:49.517Z,13.23
2018-11-12T19:23:18.255Z,14.00
2018-11-12T19:25:46.339Z,12.17
2018-11-12T19:28:14.617Z,13.10
2018-11-12T19:30:42.807Z,12.97
2018-11-12T19:33:11.049Z,12.73
2018-11-12T19:35:39.314Z,12.63
2018-11-12T19:38:07.412Z,12.10
2018-11-12T19:40:35.685Z,12.50
2018-11-12T19:43:03.637Z,11.90
2018-11-12T19:45:31.799Z,11.57
2018-11-12T19:47:59.937Z,12.17
2018-11-12T19:50:28.859Z,11.30
2018-11-12T19:52:58.897Z,11.43
2018-11-12T19:55:26.964Z,11.87
2018-11-12T19:57:55.881Z,11.77
2018-11-12T20:00:25.608Z,12.03
2018-11-12T20:02:54.994Z,12.10
2018-11-12T20:05:23.198Z,11.73
2018-11-12T20:07:51.528Z,11.40
2018-11-12T20:10:20.793Z,12.20
2018-11-12T20:12:49.063Z,12.10
2018-11-12T20:15:18.551Z,11.80
2018-11-12T20:17:47.549Z,12.30
2018-11-12T20:20:21.555Z,11.80
2018-11-12T20:22:50.298Z,10.67
2018-11-12T20:25:19.862Z,11.33
2018-11-12T20:28:06.277Z,10.93
2018-11-12T20:30:38.337Z,11.07
2018-11-12T20:33:07.561Z,10.73
2018-11-12T20:35:35.840Z,11.27
2018-11-12T20:38:04.159Z,11.20
2018-11-12T20:40:33.646Z,11.83
2018-11-12T20:43:03.855Z,12.93
2018-11-12T20:45:32.015Z,11.40
2018-11-12T20:48:01.299Z,12.07
2018-11-12T20:50:29.682Z,11.63
2018-11-12T20:52:58.209Z,11.40
2018-11-12T20:55:33.212Z,11.70
2018-11-12T20:58:09.211Z,11.00
2018-11-12T21:00:37.695Z,11.90
2018-11-12T21:03:05.976Z,12.37
2018-11-12T21:05:34.142Z,11.93
2018-11-12T21:08:03.250Z,12.07
2018-11-12T21:10:33.275Z,12.10
2018-11-12T21:13:17.774Z,12.63
2018-11-12T21:15:48.631Z,12.40
2018-11-12T21:18:25.163Z,13.03
2018-11-12T21:20:54.244Z,12.37
2018-11-12T21:23:31.505Z,12.47
2018-11-12T21:26:23.831Z,12.17
2018-11-12T21:28:57.866Z,12.43
2018-11-12T21:34:52.301Z,12.97
2018-11-12T21:37:23.663Z,13.27
2018-11-12T21:39:53.152Z,13.00
2018-11-12T21:42:24.098Z,13.13
2018-11-12T21:44:53.705Z,13.00
2018-11-12T21:47:22.290Z,12.27
2018-11-12T21:49:52.233Z,12.53
2018-11-12T21:54:56.105Z,11.90
2018-11-12T21:57:26.152Z,11.30
2018-11-12T22:00:21.790Z,11.23
2018-11-12T22:02:54.756Z,11.43
2018-11-12T22:05:23.915Z,11.67
2018-11-12T22:19:50.336Z,10.40
2018-11-12T22:55:21.088Z,10.70
